createdAt,value
2019-05-06T00:05:47.973Z,95.20
2019-05-06T00:11:49.627Z,95.40
2019-05-06T00:17:51.345Z,95.80
2019-05-06T00:23:54.615Z,95.60
2019-05-06T00:29:56.339Z,95.70
2019-05-06T00:36:00.346Z,96.20
2019-05-06T00:42:04.282Z,96.50
2019-05-06T00:48:05.843Z,96.10
2019-05-06T00:54:14.155Z,96.40
2019-05-06T01:00:18.197Z,96.80
2019-05-06T01:06:19.764Z,96.90
2019-05-06T01:12:21.471Z,97.00
2019-05-06T01:18:24.497Z,97.60
2019-05-06T01:24:26.248Z,97.60
2019-05-06T01:30:27.920Z,97.40
2019-05-06T01:36:29.378Z,97.40
2019-05-06T01:42:35.771Z,97.60
2019-05-06T01:48:46.176Z,97.60
2019-05-06T01:54:47.758Z,97.20
2019-05-06T02:00:49.422Z,97.40
2019-05-06T02:06:51.198Z,97.50
2019-05-06T02:12:54.099Z,97.40
2019-05-06T02:18:56.631Z,97.40
2019-05-06T02:25:04.507Z,97.50
2019-05-06T02:31:25.751Z,97.40
2019-05-06T02:37:46.425Z,97.60
2019-05-06T02:43:48.118Z,98.20
2019-05-06T02:49:53.517Z,98.00
2019-05-06T02:55:55.955Z,98.10
2019-05-06T03:01:57.511Z,98.20
2019-05-06T03:07:59.103Z,98.10
2019-05-06T03:14:03.086Z,98.40
2019-05-06T03:20:06.776Z,98.50
2019-05-06T03:26:09.300Z,98.40
2019-05-06T03:32:21.472Z,98.20
2019-05-06T03:38:14.421Z,98.30
2019-05-06T03:44:16.685Z,98.20
2019-05-06T03:50:18.643Z,98.60
2019-05-06T03:56:23.611Z,98.60
2019-05-06T04:02:24.338Z,98.40
2019-05-06T04:08:26.459Z,98.20
2019-05-06T04:14:30.112Z,97.80
2019-05-06T04:20:39.379Z,97.90
2019-05-06T04:26:45.980Z,97.30
2019-05-06T04:32:46.658Z,96.90
2019-05-06T04:38:48.346Z,97.30
2019-05-06T04:44:52.943Z,96.70
2019-05-06T04:50:54.058Z,96.50
2019-05-06T04:56:55.989Z,96.80
2019-05-06T05:02:59.089Z,96.00
2019-05-06T05:09:02.763Z,95.10
2019-05-06T05:15:11.854Z,94.70
2019-05-06T05:21:14.553Z,93.90
2019-05-06T05:27:16.404Z,93.60
2019-05-06T05:33:18.462Z,93.50
2019-05-06T05:39:21.823Z,92.70
2019-05-06T05:45:23.726Z,91.70
2019-05-06T05:51:25.586Z,91.90
2019-05-06T05:57:27.286Z,91.90
2019-05-06T06:03:29.067Z,91.70
2019-05-06T06:09:32.916Z,91.80
2019-05-06T06:15:45.599Z,91.50
2019-05-06T06:21:52.405Z,90.00
2019-05-06T06:27:56.010Z,87.00
2019-05-06T06:34:03.122Z,86.80
2019-05-06T06:40:06.410Z,84.50
2019-05-06T06:46:09.386Z,86.00
2019-05-06T06:52:14.592Z,82.10
2019-05-06T06:58:22.876Z,82.50
2019-05-06T07:04:27.885Z,78.90
2019-05-06T07:10:44.816Z,78.70
2019-05-06T07:16:47.885Z,77.90
2019-05-06T07:22:49.664Z,75.00
2019-05-06T07:28:52.683Z,75.00
2019-05-06T07:34:54.580Z,73.00
2019-05-06T07:41:14.445Z,72.10
2019-05-06T07:47:15.886Z,71.50
2019-05-06T07:53:17.738Z,69.10
2019-05-06T07:59:19.493Z,70.80
2019-05-06T08:05:22.399Z,67.60
2019-05-06T08:11:26.121Z,67.00
2019-05-06T08:17:29.666Z,64.20
2019-05-06T08:23:35.933Z,64.30
2019-05-06T08:29:37.653Z,60.60
2019-05-06T08:35:39.586Z,60.50
2019-05-06T08:41:42.314Z,60.10
2019-05-06T08:47:43.857Z,61.30
2019-05-06T08:53:50.217Z,59.70
2019-05-06T08:59:53.640Z,59.30
2019-05-06T09:05:55.386Z,62.60
2019-05-06T09:17:55.090Z,61.70
2019-05-06T09:23:56.864Z,61.90
2019-05-06T09:30:02.832Z,60.40
2019-05-06T09:36:06.344Z,58.30
2019-05-06T09:42:08.230Z,56.90
2019-05-06T09:48:14.750Z,55.30
2019-05-06T09:54:18.316Z,53.10
2019-05-06T10:00:23.331Z,54.10
2019-05-06T10:06:24.383Z,60.10
2019-05-06T10:12:26.299Z,59.50
2019-05-06T10:18:28.083Z,59.30
2019-05-06T10:24:29.611Z,55.50
2019-05-06T10:30:33.175Z,52.90
2019-05-06T10:36:39.852Z,52.40
2019-05-06T10:42:45.318Z,53.10
2019-05-06T10:48:46.910Z,50.80
2019-05-06T10:54:48.459Z,50.40
2019-05-06T11:01:12.476Z,52.60
2019-05-06T11:07:28.268Z,51.10
2019-05-06T11:13:18.194Z,50.60
2019-05-06T11:19:19.866Z,50.50
2019-05-06T11:25:23.045Z,51.50
2019-05-06T11:31:43.257Z,51.40
2019-05-06T11:37:54.359Z,51.50
2019-05-06T11:43:55.942Z,51.90
2019-05-06T11:49:58.197Z,51.40
2019-05-06T11:56:02.064Z,49.60
2019-05-06T12:02:05.622Z,49.60
2019-05-06T12:08:08.167Z,49.50
2019-05-06T12:14:12.211Z,49.40
2019-05-06T12:20:13.634Z,49.50
2019-05-06T12:26:15.312Z,49.10
2019-05-06T12:32:22.440Z,50.40
2019-05-06T12:38:30.447Z,53.20
2019-05-06T12:44:29.150Z,54.20
2019-05-06T12:50:33.060Z,54.10
2019-05-06T12:56:34.283Z,52.40
2019-05-06T13:02:36.040Z,48.20
2019-05-06T13:08:54.060Z,47.70
2019-05-06T13:14:43.038Z,49.40
2019-05-06T13:20:49.946Z,50.40
2019-05-06T13:26:48.031Z,51.40
2019-05-06T13:33:08.066Z,52.70
2019-05-06T13:39:14.669Z,52.00
2019-05-06T13:45:13.682Z,51.80
2019-05-06T13:51:17.239Z,48.40
2019-05-06T13:57:18.869Z,45.30
2019-05-06T14:03:20.559Z,49.20
2019-05-06T14:09:29.529Z,49.60
2019-05-06T14:15:25.614Z,49.50
2019-05-06T14:21:27.257Z,48.90
2019-05-06T14:27:28.962Z,48.30
2019-05-06T14:33:32.331Z,48.70
2019-05-06T14:39:50.222Z,49.30
2019-05-06T14:45:39.445Z,49.20
2019-05-06T14:51:42.613Z,51.10
2019-05-06T14:57:44.497Z,52.40
2019-05-06T15:03:46.204Z,51.50
2019-05-06T15:09:58.446Z,52.80
2019-05-06T15:15:52.958Z,53.20
2019-05-06T15:21:54.539Z,53.40
2019-05-06T15:27:56.006Z,53.80
2019-05-06T15:33:59.498Z,55.50
2019-05-06T15:40:03.048Z,54.60
2019-05-06T15:46:04.285Z,54.70
2019-05-06T15:52:05.847Z,54.10
2019-05-06T15:58:07.389Z,55.10
2019-05-06T16:04:08.916Z,55.70
2019-05-06T16:10:13.126Z,57.60
2019-05-06T16:16:14.276Z,58.90
2019-05-06T16:22:15.927Z,57.80
2019-05-06T16:28:17.594Z,56.20
2019-05-06T16:34:19.251Z,55.90
2019-05-06T16:40:22.984Z,57.40
2019-05-06T16:46:24.384Z,56.80
2019-05-06T16:52:25.985Z,55.20
2019-05-06T16:58:40.071Z,56.60
2019-05-06T17:04:46.561Z,55.40
2019-05-06T17:10:48.075Z,56.80
2019-05-06T17:16:49.564Z,56.00
2019-05-06T17:22:53.166Z,56.50
2019-05-06T17:29:02.695Z,57.60
2019-05-06T17:35:05.578Z,54.30
2019-05-06T17:41:07.204Z,50.60
2019-05-06T17:47:16.316Z,51.20
2019-05-06T17:53:17.870Z,51.40
2019-05-06T17:59:19.391Z,52.20
2019-05-06T18:05:22.843Z,54.20
2019-05-06T18:11:24.407Z,57.50
2019-05-06T18:17:25.943Z,60.00
2019-05-06T18:23:27.738Z,61.30
2019-05-06T18:29:29.189Z,62.70
2019-05-06T18:35:30.708Z,63.90
2019-05-06T18:41:33.179Z,65.80
2019-05-06T18:47:34.683Z,67.00
2019-05-06T18:53:36.329Z,67.60
2019-05-06T18:59:37.871Z,68.80
2019-05-06T19:05:42.947Z,69.00
2019-05-06T19:11:44.900Z,70.40
2019-05-06T19:17:46.610Z,71.50
2019-05-06T19:23:48.096Z,70.80
2019-05-06T19:29:49.792Z,70.10
2019-05-06T19:35:52.361Z,69.90
2019-05-06T19:41:57.233Z,69.90
2019-05-06T19:47:58.640Z,69.00
2019-05-06T19:54:02.101Z,71.80
2019-05-06T20:00:05.593Z,74.50
2019-05-06T20:06:28.850Z,76.10
2019-05-06T20:12:43.386Z,76.80
2019-05-06T20:18:45.029Z,78.80
2019-05-06T20:24:47.711Z,80.50
2019-05-06T20:30:49.256Z,82.10
2019-05-06T20:36:52.841Z,84.20
2019-05-06T20:42:54.151Z,82.40
2019-05-06T20:48:56.005Z,84.70
2019-05-06T20:54:59.467Z,84.50
2019-05-06T21:01:02.891Z,85.20
2019-05-06T21:07:04.264Z,87.80
2019-05-06T21:13:05.802Z,85.90
2019-05-06T21:19:07.292Z,87.00
2019-05-06T21:25:09.073Z,88.50
2019-05-06T21:31:12.488Z,89.00
2019-05-06T21:37:14.001Z,90.80
2019-05-06T21:43:15.586Z,91.40
2019-05-06T21:49:18.462Z,90.00
2019-05-06T21:55:20.144Z,90.60
2019-05-06T22:01:22.275Z,91.20
2019-05-06T22:07:23.821Z,91.60
2019-05-06T22:13:25.433Z,91.70
2019-05-06T22:19:27.005Z,91.80
2019-05-06T22:25:28.615Z,92.60
2019-05-06T22:31:30.288Z,92.60
2019-05-06T22:37:33.149Z,92.00
2019-05-06T22:43:37.938Z,91.50
2019-05-06T22:49:39.874Z,92.20
2019-05-06T22:55:44.046Z,92.80
2019-05-06T23:01:57.382Z,92.40
2019-05-06T23:08:02.671Z,92.50
2019-05-06T23:14:02.856Z,92.70
2019-05-06T23:20:06.475Z,92.30
2019-05-06T23:26:22.910Z,92.20
2019-05-06T23:32:24.564Z,89.90
2019-05-06T23:39:04.879Z,86.90
2019-05-06T23:45:44.117Z,86.70
2019-05-06T23:52:22.790Z,86.00
2019-05-06T23:58:25.182Z,85.00
